Cave City, Kentucky
Current Conditions -  °F | °C
As of 5:35 AM on Friday 31 Oct 2014 (Local Time) from KGLW Reporting Station
Overcast Overcast  
Wind Chill: 46°   Ceiling: 6000
Heat Index: 46°   Visibility: 10mi
Dew Point: 44°   Wind: 0mph
Humidity: 95%   Direction: NA
Pressure: 29.99"   Gusts: NA
Location:  37.14°N, 85.96°W
Report Text: KGLW 311035Z AUTO 00000KT 10SM OVC060 08/07 A2999 RMK AO2 T00750067
Loading
Personal Weather Stations






























Interactive Weather Map
Tropical Storm Tracking
New forecast layout! Learn more

10-Day Weather Forecast

Advertisements
Track Severe Weather on mobile